createdAt,value
2023-04-11T00:00:31.708Z,12.97
2023-04-11T00:01:34.187Z,12.97
2023-04-11T00:02:36.399Z,12.95
2023-04-11T00:03:38.958Z,12.95
2023-04-11T00:04:41.627Z,12.94
2023-04-11T00:05:44.247Z,12.93
2023-04-11T00:06:47.513Z,12.92
2023-04-11T00:07:49.869Z,12.91
2023-04-11T00:08:52.794Z,12.89
2023-04-11T00:09:55.113Z,12.87
2023-04-11T00:10:58.543Z,12.86
2023-04-11T00:12:00.740Z,12.86
2023-04-11T00:13:02.913Z,12.84
2023-04-11T00:14:05.277Z,12.82
2023-04-11T00:15:07.943Z,12.82
2023-04-11T00:16:10.693Z,12.81
2023-04-11T00:17:13.073Z,12.80
2023-04-11T00:18:15.568Z,12.79
2023-04-11T00:19:17.555Z,12.78
2023-04-11T00:20:19.949Z,12.77
2023-04-11T00:21:22.450Z,12.77
2023-04-11T00:22:24.422Z,12.76
2023-04-11T00:23:26.282Z,12.75
2023-04-11T00:24:28.200Z,12.75
2023-04-11T00:25:30.398Z,12.76
2023-04-11T00:26:33.105Z,12.75
2023-04-11T00:27:35.456Z,12.74
2023-04-11T00:28:37.527Z,12.74
2023-04-11T00:29:40.316Z,12.75
2023-04-11T00:30:42.384Z,12.74
2023-04-11T00:31:44.577Z,12.74
2023-04-11T00:32:46.663Z,12.74
2023-04-11T00:33:49.229Z,12.72
2023-04-11T00:34:51.498Z,12.72
2023-04-11T00:35:53.642Z,12.73
2023-04-11T00:36:56.602Z,12.72
2023-04-11T00:37:58.769Z,12.73
2023-04-11T00:39:00.739Z,12.71
2023-04-11T00:40:07.369Z,12.70
2023-04-11T00:41:10.201Z,12.69
2023-04-11T00:42:12.209Z,12.69
2023-04-11T00:43:16.145Z,12.68
2023-04-11T00:44:18.024Z,12.67
2023-04-11T00:45:20.167Z,12.66
2023-04-11T00:46:22.642Z,12.64
2023-04-11T00:47:25.008Z,12.63
2023-04-11T00:48:27.073Z,12.62
2023-04-11T00:49:30.601Z,12.61
2023-04-11T00:50:32.814Z,12.61
2023-04-11T00:51:35.188Z,12.61
2023-04-11T00:52:37.963Z,12.59
2023-04-11T00:53:40.700Z,12.57
2023-04-11T00:54:42.863Z,12.58
2023-04-11T00:55:44.940Z,12.56
2023-04-11T00:56:47.628Z,12.55
2023-04-11T00:57:53.261Z,12.55
2023-04-11T00:58:56.459Z,12.53
2023-04-11T01:00:02.193Z,12.52
2023-04-11T01:01:05.285Z,12.53
2023-04-11T01:02:09.907Z,12.51
2023-04-11T01:03:12.490Z,12.52
2023-04-11T01:04:16.539Z,12.51
2023-04-11T01:05:19.053Z,12.51
2023-04-11T01:06:22.481Z,12.49
2023-04-11T01:07:26.306Z,12.49
2023-04-11T01:08:29.194Z,12.49
2023-04-11T01:09:33.716Z,12.49
2023-04-11T01:10:36.592Z,12.47
2023-04-11T01:11:39.262Z,12.47
2023-04-11T01:12:43.391Z,12.45
2023-04-11T01:13:46.299Z,12.45
2023-04-11T01:14:48.745Z,12.46
2023-04-11T01:15:50.722Z,12.47
2023-04-11T01:16:53.078Z,12.46
2023-04-11T01:17:55.590Z,12.45
2023-04-11T01:18:58.166Z,12.44
2023-04-11T01:20:00.935Z,12.41
2023-04-11T01:21:03.239Z,12.40
2023-04-11T01:22:05.944Z,12.40
2023-04-11T01:23:09.123Z,12.38
2023-04-11T01:24:11.340Z,12.39
2023-04-11T01:25:15.064Z,12.39
2023-04-11T01:26:18.226Z,12.39
2023-04-11T01:27:20.181Z,12.36
2023-04-11T01:28:23.204Z,12.37
2023-04-11T01:29:26.935Z,12.35
2023-04-11T01:30:29.255Z,12.35
2023-04-11T01:31:31.806Z,12.32
2023-04-11T01:32:34.314Z,12.30
2023-04-11T01:33:36.668Z,12.29
2023-04-11T01:34:40.532Z,12.28
2023-04-11T01:35:43.659Z,12.28
2023-04-11T01:36:47.616Z,12.25
2023-04-11T01:37:49.961Z,12.23
2023-04-11T01:38:52.806Z,12.24
2023-04-11T01:39:54.887Z,12.23
2023-04-11T01:40:58.889Z,12.21
2023-04-11T01:42:01.528Z,12.21
2023-04-11T01:43:03.650Z,12.19
2023-04-11T01:44:05.645Z,12.20
2023-04-11T01:45:09.877Z,12.19
2023-04-11T01:46:14.662Z,12.20
2023-04-11T01:47:16.980Z,12.18
2023-04-11T01:48:20.927Z,12.19
2023-04-11T01:49:24.790Z,12.19
2023-04-11T01:50:27.763Z,12.17
2023-04-11T01:51:30.732Z,12.16
2023-04-11T01:52:34.035Z,12.15
2023-04-11T01:53:36.206Z,12.14
2023-04-11T01:54:38.613Z,12.13
2023-04-11T01:55:41.047Z,12.10
2023-04-11T01:56:43.762Z,12.09
2023-04-11T01:57:47.696Z,12.08
2023-04-11T01:58:50.216Z,12.07
2023-04-11T01:59:52.852Z,12.07
2023-04-11T02:00:54.896Z,12.07
2023-04-11T02:01:58.054Z,12.06
2023-04-11T02:03:00.743Z,12.05
2023-04-11T02:04:04.217Z,12.05
2023-04-11T02:05:08.193Z,12.05
2023-04-11T02:06:10.860Z,12.05
2023-04-11T02:07:12.799Z,12.03
2023-04-11T02:08:15.153Z,12.03
2023-04-11T02:09:17.159Z,12.02
2023-04-11T02:10:19.671Z,12.01
2023-04-11T02:11:21.631Z,12.01
2023-04-11T02:12:44.192Z,12.01
2023-04-11T02:13:48.218Z,12.02
2023-04-11T02:14:50.112Z,12.01
2023-04-11T02:15:52.321Z,12.01
2023-04-11T02:16:55.562Z,11.99
2023-04-11T02:17:58.398Z,11.99
2023-04-11T02:19:00.455Z,11.97
2023-04-11T02:20:04.755Z,11.97
2023-04-11T02:21:07.000Z,11.96
2023-04-11T02:22:09.431Z,11.95
2023-04-11T02:23:11.269Z,11.94
2023-04-11T02:24:14.879Z,11.95
2023-04-11T02:25:17.068Z,11.93
2023-04-11T02:26:19.139Z,11.93
2023-04-11T02:27:21.466Z,11.93
2023-04-11T02:28:23.568Z,11.93
2023-04-11T02:29:28.194Z,11.93
2023-04-11T02:30:30.321Z,11.93
2023-04-11T02:31:32.809Z,11.92
2023-04-11T02:32:35.905Z,11.91
2023-04-11T02:33:37.841Z,11.91
2023-04-11T02:34:40.642Z,11.90
2023-04-11T02:35:42.804Z,11.90
2023-04-11T02:36:44.846Z,11.89
2023-04-11T02:37:47.110Z,11.88
2023-04-11T02:38:49.056Z,11.89
2023-04-11T02:39:51.045Z,11.87
2023-04-11T02:40:53.117Z,11.86
2023-04-11T02:41:55.008Z,11.87
2023-04-11T02:42:57.032Z,11.86
2023-04-11T02:43:59.373Z,11.84
2023-04-11T02:45:02.107Z,11.83
2023-04-11T02:46:12.600Z,11.85
2023-04-11T02:47:08.684Z,11.85
2023-04-11T02:48:11.322Z,11.84
2023-04-11T02:49:15.746Z,11.84
2023-04-11T02:50:20.156Z,11.82
2023-04-11T02:51:24.181Z,11.80
2023-04-11T02:52:26.997Z,11.80
2023-04-11T02:53:29.176Z,11.79
2023-04-11T02:54:32.202Z,11.81
2023-04-11T02:55:35.402Z,11.80
2023-04-11T02:56:38.066Z,11.79
2023-04-11T02:57:40.180Z,11.78
2023-04-11T02:58:45.028Z,11.78
2023-04-11T02:59:47.962Z,11.78
2023-04-11T03:00:54.153Z,11.78
2023-04-11T03:03:08.425Z,11.86
2023-04-11T03:04:12.771Z,11.72
2023-04-11T03:05:21.024Z,11.73
2023-04-11T03:06:24.584Z,11.74
2023-04-11T03:07:30.092Z,11.72
2023-04-11T03:08:33.389Z,11.74
2023-04-11T03:09:37.082Z,11.74
2023-04-11T03:10:40.493Z,11.73
2023-04-11T03:11:46.911Z,11.73
2023-04-11T03:12:49.489Z,11.70
2023-04-11T03:13:51.455Z,11.69
2023-04-11T03:14:53.314Z,11.70
2023-04-11T03:15:55.955Z,11.69
2023-04-11T03:17:00.008Z,11.69
2023-04-11T03:18:03.299Z,11.70
2023-04-11T03:19:05.432Z,11.69
2023-04-11T03:20:08.884Z,11.69
2023-04-11T03:21:10.974Z,11.70
2023-04-11T03:22:15.111Z,11.69
2023-04-11T03:23:20.370Z,11.69
2023-04-11T03:24:22.784Z,11.69
2023-04-11T03:25:26.113Z,11.67
2023-04-11T03:26:28.887Z,11.66
2023-04-11T03:27:32.865Z,11.66
2023-04-11T03:28:36.766Z,11.66
2023-04-11T03:29:39.166Z,11.65
2023-04-11T03:30:46.026Z,11.66
2023-04-11T03:31:50.524Z,11.66
2023-04-11T03:32:53.657Z,11.65
2023-04-11T03:33:55.850Z,11.65
2023-04-11T03:34:59.993Z,11.65
2023-04-11T03:36:02.301Z,11.66
2023-04-11T03:37:04.620Z,11.66
2023-04-11T03:38:07.616Z,11.66
2023-04-11T03:39:09.632Z,11.66
2023-04-11T03:40:12.949Z,11.68
2023-04-11T03:41:16.907Z,11.67
2023-04-11T03:42:20.506Z,11.67
2023-04-11T03:43:24.172Z,11.68
2023-04-11T03:44:27.092Z,11.68
2023-04-11T03:45:29.541Z,11.67
2023-04-11T03:46:33.215Z,11.69
2023-04-11T03:47:38.358Z,11.68
2023-04-11T03:48:42.632Z,11.68
2023-04-11T03:49:45.077Z,11.69
2023-04-11T03:50:48.091Z,11.69
2023-04-11T03:51:52.151Z,11.69
2023-04-11T03:52:54.218Z,11.69
2023-04-11T03:53:56.629Z,11.69
2023-04-11T03:55:01.803Z,11.69
2023-04-11T03:56:04.428Z,11.69
2023-04-11T03:57:08.432Z,11.69
2023-04-11T03:58:11.733Z,11.70
2023-04-11T03:59:15.444Z,11.69
2023-04-11T04:00:19.845Z,11.69
2023-04-11T04:01:23.904Z,11.69
2023-04-11T04:02:27.037Z,11.69
2023-04-11T04:03:29.889Z,11.69
2023-04-11T04:04:33.481Z,11.69
2023-04-11T04:05:40.755Z,11.69
2023-04-11T04:06:44.063Z,11.69
2023-04-11T04:07:46.724Z,11.69
2023-04-11T04:08:56.967Z,11.70
2023-04-11T04:10:00.179Z,11.69
2023-04-11T04:11:03.136Z,11.67
2023-04-11T04:12:07.065Z,11.66
2023-04-11T04:13:11.057Z,11.67
2023-04-11T04:14:15.078Z,11.67
2023-04-11T04:15:17.597Z,11.67
2023-04-11T04:16:21.775Z,11.68
2023-04-11T04:17:27.081Z,11.68
2023-04-11T04:18:29.699Z,11.69
2023-04-11T04:19:31.757Z,11.70
2023-04-11T04:20:34.248Z,11.69
2023-04-11T04:21:36.078Z,11.70
2023-04-11T04:22:38.187Z,11.71
2023-04-11T04:23:40.843Z,11.70
2023-04-11T04:24:57.081Z,11.69
2023-04-11T04:26:01.537Z,11.72
2023-04-11T04:27:05.239Z,11.73
2023-04-11T04:28:18.458Z,11.70
2023-04-11T04:29:20.722Z,11.72
2023-04-11T04:30:25.003Z,11.72
2023-04-11T04:31:29.758Z,11.72
2023-04-11T04:32:35.257Z,11.72
2023-04-11T04:33:39.738Z,11.73
2023-04-11T04:34:44.481Z,11.74
2023-04-11T04:35:46.898Z,11.74
2023-04-11T04:36:49.494Z,11.73
2023-04-11T04:37:58.154Z,11.74
2023-04-11T04:39:02.564Z,11.76
2023-04-11T04:40:07.541Z,11.75
2023-04-11T04:41:11.479Z,11.76
2023-04-11T04:42:14.606Z,11.77
2023-04-11T04:43:20.295Z,11.79
2023-04-11T04:44:24.341Z,11.82
2023-04-11T04:45:29.075Z,11.83
2023-04-11T04:46:33.190Z,11.85
2023-04-11T04:47:36.780Z,11.86
2023-04-11T04:48:39.086Z,11.89
2023-04-11T04:49:42.744Z,11.94
2023-04-11T04:50:45.134Z,12.03
2023-04-11T04:51:47.615Z,12.15
2023-04-11T04:52:50.813Z,12.36
2023-04-11T04:53:54.391Z,12.60
2023-04-11T04:54:58.049Z,12.83
2023-04-11T04:56:00.983Z,13.06
2023-04-11T04:57:04.281Z,13.25
2023-04-11T04:58:07.635Z,13.46
2023-04-11T04:59:10.371Z,13.62
2023-04-11T05:00:13.502Z,13.80
2023-04-11T05:01:17.779Z,13.96
2023-04-11T05:02:20.742Z,14.11
2023-04-11T05:03:23.922Z,14.26
2023-04-11T05:04:26.879Z,14.40
2023-04-11T05:05:33.533Z,14.54
2023-04-11T05:06:36.407Z,14.69
2023-04-11T05:07:38.927Z,14.82
2023-04-11T05:08:40.932Z,14.97
2023-04-11T05:09:45.049Z,15.13
2023-04-11T05:10:49.642Z,15.28
2023-04-11T05:11:52.546Z,15.40
2023-04-11T05:12:56.402Z,15.55
2023-04-11T05:13:58.693Z,15.68
2023-04-11T05:15:15.014Z,15.80
2023-04-11T05:16:18.738Z,15.90
2023-04-11T05:17:22.737Z,16.05
2023-04-11T05:18:25.761Z,16.18
2023-04-11T05:19:27.828Z,16.29
2023-04-11T05:20:30.041Z,16.40
2023-04-11T05:21:33.501Z,16.52
2023-04-11T05:22:36.330Z,16.61
2023-04-11T05:23:38.634Z,16.68
2023-04-11T05:24:40.784Z,16.76
2023-04-11T05:25:45.107Z,16.87
2023-04-11T05:26:48.463Z,16.97
2023-04-11T05:27:52.347Z,17.04
2023-04-11T05:28:56.549Z,17.12
2023-04-11T05:29:58.905Z,17.20
2023-04-11T05:31:02.370Z,17.28
2023-04-11T05:32:05.412Z,17.35
2023-04-11T05:33:08.749Z,17.37
2023-04-11T05:34:11.803Z,17.40
2023-04-11T05:35:14.164Z,17.40
2023-04-11T05:36:25.065Z,17.39
2023-04-11T05:37:27.169Z,17.33
2023-04-11T05:38:29.333Z,17.24
2023-04-11T05:39:31.384Z,17.13
2023-04-11T05:40:33.526Z,17.02
2023-04-11T05:41:35.530Z,16.92
2023-04-11T05:42:39.025Z,16.83
2023-04-11T05:43:41.022Z,16.75
2023-04-11T05:44:44.787Z,16.67
2023-04-11T05:45:47.135Z,16.57
2023-04-11T05:46:51.718Z,16.49
2023-04-11T05:47:53.928Z,16.39
2023-04-11T05:48:56.021Z,16.35
2023-04-11T05:49:58.777Z,16.27
2023-04-11T05:51:14.851Z,16.21
2023-04-11T05:52:16.880Z,16.14
2023-04-11T05:53:19.620Z,16.10
2023-04-11T05:55:44.360Z,16.10
2023-04-11T05:56:46.493Z,15.85
2023-04-11T05:57:48.727Z,15.82
2023-04-11T05:58:50.618Z,15.79
2023-04-11T05:59:53.176Z,15.78
2023-04-11T06:00:57.723Z,15.73
2023-04-11T06:02:00.086Z,15.70
2023-04-11T06:03:03.555Z,15.67
2023-04-11T06:04:05.984Z,15.64
2023-04-11T06:05:11.254Z,15.60
2023-04-11T06:06:14.105Z,15.56
2023-04-11T06:07:16.261Z,15.53
2023-04-11T06:08:18.587Z,15.49
2023-04-11T06:09:21.197Z,15.47
2023-04-11T06:10:23.861Z,15.45
2023-04-11T06:11:25.820Z,15.42
2023-04-11T06:12:27.873Z,15.39
2023-04-11T06:13:29.930Z,15.39
2023-04-11T06:14:32.293Z,15.37
2023-04-11T06:15:34.914Z,15.35
2023-04-11T06:16:38.554Z,15.32
2023-04-11T06:17:40.619Z,15.30
2023-04-11T06:18:42.656Z,15.28
2023-04-11T06:19:44.674Z,15.26
2023-04-11T06:20:47.083Z,15.28
2023-04-11T06:21:49.667Z,15.25
2023-04-11T06:22:51.768Z,15.25
2023-04-11T06:23:54.248Z,15.23
2023-04-11T06:24:56.820Z,15.23
2023-04-11T06:25:59.396Z,15.22
2023-04-11T06:27:01.974Z,15.23
2023-04-11T06:28:04.319Z,15.21
2023-04-11T06:29:07.215Z,15.21
2023-04-11T06:30:10.587Z,15.19
2023-04-11T06:31:12.661Z,15.18
2023-04-11T06:32:14.700Z,15.17
2023-04-11T06:33:16.798Z,15.18
2023-04-11T06:34:18.906Z,15.19
2023-04-11T06:35:21.121Z,15.19
2023-04-11T06:36:23.177Z,15.20
2023-04-11T06:37:25.144Z,15.20
2023-04-11T06:38:28.266Z,15.21
2023-04-11T06:39:30.326Z,15.21
2023-04-11T06:40:32.539Z,15.22
2023-04-11T06:41:34.743Z,15.21
2023-04-11T06:42:37.218Z,15.22
2023-04-11T06:43:39.206Z,15.23
2023-04-11T06:44:41.243Z,15.25
2023-04-11T06:45:43.802Z,15.27
2023-04-11T06:46:47.305Z,15.27
2023-04-11T06:47:49.580Z,15.29
2023-04-11T06:48:52.444Z,15.29
2023-04-11T06:49:55.642Z,15.30
2023-04-11T06:50:58.460Z,15.32
2023-04-11T06:52:01.148Z,15.32
2023-04-11T06:53:05.306Z,15.34
2023-04-11T06:54:11.284Z,15.35
2023-04-11T06:55:13.777Z,15.35
2023-04-11T06:56:16.972Z,15.37
2023-04-11T06:57:20.566Z,15.37
2023-04-11T06:58:23.184Z,15.39
2023-04-11T06:59:25.025Z,15.39
2023-04-11T07:00:27.566Z,15.41
2023-04-11T07:01:30.019Z,15.43
2023-04-11T07:02:34.441Z,15.47
2023-04-11T07:03:38.597Z,15.48
2023-04-11T07:04:43.647Z,15.49
2023-04-11T07:05:47.859Z,15.52
2023-04-11T07:06:53.540Z,15.53
2023-04-11T07:07:57.688Z,15.56
2023-04-11T07:09:00.755Z,15.59
2023-04-11T07:10:05.796Z,15.61
2023-04-11T07:11:09.612Z,15.64
2023-04-11T07:12:13.831Z,15.65
2023-04-11T07:13:17.852Z,15.69
2023-04-11T07:14:20.142Z,15.72
2023-04-11T07:15:23.553Z,15.74
2023-04-11T07:16:27.886Z,15.76
2023-04-11T07:17:30.616Z,15.77
2023-04-11T07:18:33.215Z,15.78
2023-04-11T07:19:35.613Z,15.82
2023-04-11T07:20:37.672Z,15.83
2023-04-11T07:21:40.475Z,15.86
2023-04-11T07:22:42.502Z,15.87
2023-04-11T07:23:48.013Z,15.88
2023-04-11T07:24:52.510Z,15.92
2023-04-11T07:25:56.350Z,15.94
2023-04-11T07:27:02.134Z,16.00
2023-04-11T07:28:05.816Z,16.12
2023-04-11T07:29:11.003Z,16.24
2023-04-11T07:30:15.253Z,16.38
2023-04-11T07:31:18.016Z,16.56
2023-04-11T07:32:25.682Z,16.76
2023-04-11T07:33:28.881Z,16.96
2023-04-11T07:34:31.412Z,17.17
2023-04-11T07:35:35.938Z,17.41
2023-04-11T07:36:39.693Z,17.63
2023-04-11T07:37:42.025Z,17.89
2023-04-11T07:38:43.893Z,18.11
2023-04-11T07:39:45.738Z,18.32
2023-04-11T07:40:47.866Z,18.56
2023-04-11T07:41:49.878Z,18.82
2023-04-11T07:42:52.183Z,19.09
2023-04-11T07:43:55.612Z,19.33
2023-04-11T07:44:57.854Z,19.59
2023-04-11T07:45:59.952Z,19.82
2023-04-11T07:47:05.318Z,20.03
2023-04-11T07:48:08.089Z,20.23
2023-04-11T07:49:09.913Z,20.38
2023-04-11T07:50:13.367Z,20.54
2023-04-11T07:51:15.958Z,20.74
2023-04-11T07:52:18.003Z,20.96
2023-04-11T07:53:21.159Z,21.16
2023-04-11T07:54:23.493Z,21.28
2023-04-11T07:55:25.912Z,21.41
2023-04-11T07:56:27.963Z,21.59
2023-04-11T07:57:30.774Z,21.82
2023-04-11T07:58:33.229Z,22.01
2023-04-11T07:59:35.219Z,22.11
2023-04-11T08:00:37.668Z,22.18
2023-04-11T08:01:39.782Z,22.26
2023-04-11T08:02:45.187Z,22.31
2023-04-11T08:03:48.385Z,22.39
2023-04-11T08:04:51.148Z,22.46
2023-04-11T08:05:53.754Z,22.48
2023-04-11T08:06:55.714Z,22.48
2023-04-11T08:07:57.627Z,22.44
2023-04-11T08:08:59.531Z,22.35
2023-04-11T08:10:01.945Z,22.25
2023-04-11T08:11:04.717Z,22.13
2023-04-11T08:12:06.792Z,22.00
2023-04-11T08:13:09.443Z,21.88
2023-04-11T08:14:11.805Z,21.71
2023-04-11T08:15:14.519Z,21.57
2023-04-11T08:16:16.750Z,21.44
2023-04-11T08:17:27.655Z,21.25
2023-04-11T08:18:23.233Z,21.09
2023-04-11T08:19:25.148Z,20.94
2023-04-11T08:20:41.140Z,20.79
2023-04-11T08:22:52.736Z,20.63
2023-04-11T08:23:54.721Z,20.35
2023-04-11T08:24:57.753Z,20.26
2023-04-11T08:26:00.333Z,20.18
2023-04-11T08:27:03.092Z,20.12
2023-04-11T08:29:18.092Z,20.07
2023-04-11T08:30:21.022Z,19.86
2023-04-11T08:31:23.205Z,19.80
2023-04-11T08:32:26.126Z,19.79
2023-04-11T08:33:28.611Z,19.73
2023-04-11T08:34:33.575Z,19.69
2023-04-11T08:35:35.626Z,19.61
2023-04-11T08:36:38.174Z,19.59
2023-04-11T08:37:40.432Z,19.56
2023-04-11T08:38:43.206Z,19.56
2023-04-11T08:39:45.702Z,19.57
2023-04-11T08:40:47.751Z,19.60
2023-04-11T08:41:50.662Z,19.62
2023-04-11T08:43:00.451Z,19.63
2023-04-11T08:44:02.871Z,19.60
2023-04-11T08:45:13.028Z,19.60
2023-04-11T08:46:18.765Z,19.61
2023-04-11T08:47:22.812Z,19.64
2023-04-11T08:48:24.804Z,19.67
2023-04-11T08:49:30.636Z,19.68
2023-04-11T08:51:46.867Z,19.83
2023-04-11T08:52:49.157Z,19.70
2023-04-11T08:53:55.654Z,19.74
2023-04-11T08:54:58.258Z,19.77
2023-04-11T08:56:00.240Z,19.78
2023-04-11T08:57:03.567Z,19.79
2023-04-11T08:58:06.317Z,19.81
2023-04-11T08:59:12.396Z,19.82
2023-04-11T09:00:19.137Z,19.85
2023-04-11T09:01:30.428Z,19.87
2023-04-11T09:02:34.168Z,19.91
2023-04-11T09:03:53.830Z,19.94
2023-04-11T09:05:00.637Z,19.97
2023-04-11T09:06:06.940Z,20.01
2023-04-11T09:07:13.514Z,20.05
2023-04-11T09:08:16.399Z,20.08
2023-04-11T09:09:28.884Z,20.15
2023-04-11T09:10:31.579Z,20.18
2023-04-11T09:13:20.308Z,20.42
2023-04-11T09:14:28.153Z,20.29
2023-04-11T09:15:30.566Z,20.33
2023-04-11T09:16:37.728Z,20.36
2023-04-11T09:17:43.897Z,20.39
2023-04-11T09:18:46.902Z,20.45
2023-04-11T09:19:50.563Z,20.48
2023-04-11T09:20:58.749Z,20.49
2023-04-11T09:22:04.259Z,20.52
2023-04-11T09:23:06.353Z,20.56
2023-04-11T09:24:16.908Z,20.60
2023-04-11T09:25:23.701Z,20.62
2023-04-11T09:26:28.594Z,20.66
2023-04-11T09:27:31.697Z,20.69
2023-04-11T09:28:46.536Z,20.71
2023-04-11T09:29:48.653Z,20.72
2023-04-11T09:30:55.592Z,20.74
2023-04-11T09:31:58.696Z,20.77
2023-04-11T09:34:28.151Z,20.89
2023-04-11T09:35:30.619Z,20.69
2023-04-11T09:36:34.306Z,20.66
2023-04-11T09:39:22.336Z,20.76
2023-04-11T09:40:26.640Z,20.59
2023-04-11T09:41:35.954Z,20.60
2023-04-11T09:42:42.905Z,20.62
2023-04-11T09:43:54.139Z,20.63
2023-04-11T09:44:57.310Z,20.63
2023-04-11T09:46:10.893Z,20.63
2023-04-11T09:47:13.070Z,20.63
2023-04-11T09:48:15.617Z,20.64
2023-04-11T09:50:28.693Z,20.75
2023-04-11T09:51:37.017Z,20.60
2023-04-11T09:52:45.354Z,20.61
2023-04-11T09:53:50.531Z,20.60
2023-04-11T09:54:54.050Z,20.59
2023-04-11T09:55:56.665Z,20.59
2023-04-11T09:57:02.618Z,20.57
2023-04-11T09:58:05.423Z,20.55
2023-04-11T09:59:07.673Z,20.50
2023-04-11T10:01:23.886Z,20.48
2023-04-11T10:02:27.449Z,20.29
2023-04-11T10:03:31.178Z,20.28
2023-04-11T10:04:33.808Z,20.26
2023-04-11T10:05:41.406Z,20.25
2023-04-11T10:07:08.858Z,20.22
2023-04-11T10:08:31.938Z,20.20
2023-04-11T10:13:27.708Z,20.07
2023-04-11T10:14:41.842Z,20.08
2023-04-11T10:17:20.753Z,20.25
2023-04-11T10:18:20.824Z,20.09
2023-04-11T10:19:23.649Z,20.14
2023-04-11T10:22:02.052Z,20.28
2023-04-11T10:23:06.678Z,20.14
2023-04-11T10:24:13.482Z,20.14
2023-04-11T10:25:20.867Z,20.15
2023-04-11T10:26:26.800Z,20.16
2023-04-11T10:29:39.234Z,20.18
2023-04-11T10:30:47.641Z,20.03
2023-04-11T10:32:11.250Z,20.05
2023-04-11T10:33:19.708Z,20.08
2023-04-11T10:34:26.464Z,20.12
2023-04-11T10:35:29.768Z,20.10
2023-04-11T10:36:53.262Z,20.07
2023-04-11T10:37:55.578Z,20.05
2023-04-11T10:38:59.487Z,20.04
2023-04-11T10:40:04.660Z,20.04
2023-04-11T10:41:26.688Z,20.04
2023-04-11T10:42:43.146Z,20.03
2023-04-11T10:43:46.812Z,20.02
2023-04-11T10:45:10.896Z,20.02
2023-04-11T10:46:26.316Z,20.02
2023-04-11T10:47:31.782Z,20.02
2023-04-11T10:49:50.766Z,20.09
2023-04-11T10:50:55.621Z,19.92
2023-04-11T10:52:19.346Z,19.93
2023-04-11T10:53:38.571Z,19.92
2023-04-11T10:54:41.660Z,19.88
2023-04-11T10:55:54.357Z,19.87
2023-04-11T10:56:56.896Z,19.81
2023-04-11T10:58:21.836Z,19.76
2023-04-11T11:02:29.013Z,19.80
2023-04-11T11:03:32.631Z,19.60
2023-04-11T11:04:37.431Z,19.59
2023-04-11T11:05:46.447Z,19.53
2023-04-11T11:06:56.964Z,19.52
2023-04-11T11:07:55.811Z,19.49
2023-04-11T11:08:57.997Z,19.49
2023-04-11T11:10:02.368Z,19.48
2023-04-11T11:11:07.847Z,19.46
2023-04-11T11:12:17.307Z,19.38
2023-04-11T11:13:20.913Z,19.28
2023-04-11T11:14:38.769Z,19.21
2023-04-11T11:15:53.745Z,19.16
2023-04-11T11:16:57.809Z,19.15
2023-04-11T11:18:00.209Z,19.08
2023-04-11T11:19:04.734Z,19.04
2023-04-11T11:20:18.230Z,18.99
2023-04-11T11:22:28.634Z,18.93
2023-04-11T11:23:31.870Z,18.92
2023-04-11T11:24:37.092Z,18.89
2023-04-11T11:25:39.299Z,18.85
2023-04-11T11:26:43.250Z,18.83
2023-04-11T11:27:45.544Z,18.80
2023-04-11T11:28:50.273Z,18.79
2023-04-11T11:32:37.746Z,18.86
2023-04-11T11:34:43.682Z,18.69
2023-04-11T11:37:06.264Z,18.80
2023-04-11T11:39:21.295Z,18.75
2023-04-11T11:40:24.468Z,18.57
2023-04-11T11:41:27.595Z,18.58
2023-04-11T11:42:29.937Z,18.57
2023-04-11T11:43:36.021Z,18.57
2023-04-11T11:44:39.178Z,18.57
2023-04-11T11:45:42.609Z,18.59
2023-04-11T11:47:02.818Z,18.60
2023-04-11T11:49:51.742Z,18.69
2023-04-11T11:50:55.931Z,18.54
2023-04-11T11:51:58.133Z,18.53
2023-04-11T11:53:16.786Z,18.51
2023-04-11T11:54:18.986Z,18.51
2023-04-11T11:57:54.808Z,18.58
2023-04-11T11:58:57.202Z,18.41
2023-04-11T12:00:02.562Z,18.42
2023-04-11T12:02:16.565Z,18.46
2023-04-11T12:03:25.227Z,18.49
2023-04-11T12:04:27.547Z,18.53
2023-04-11T12:05:32.574Z,18.49
2023-04-11T12:06:35.249Z,18.48
2023-04-11T12:07:38.364Z,18.47
2023-04-11T12:08:40.969Z,18.43
2023-04-11T12:09:47.221Z,18.41
2023-04-11T12:10:51.382Z,18.37
2023-04-11T12:11:56.113Z,18.36
2023-04-11T12:12:58.387Z,18.36
2023-04-11T12:14:00.525Z,18.35
2023-04-11T12:15:11.503Z,18.35
2023-04-11T12:16:16.144Z,18.34
2023-04-11T12:17:18.478Z,18.34
2023-04-11T12:18:25.453Z,18.32
2023-04-11T12:19:33.138Z,18.30
2023-04-11T12:20:35.598Z,18.29
2023-04-11T12:21:37.897Z,18.28
2023-04-11T12:22:52.143Z,18.31
2023-04-11T12:23:57.994Z,18.31
2023-04-11T12:26:24.932Z,18.42
2023-04-11T12:27:29.946Z,18.31
2023-04-11T12:28:32.059Z,18.33
2023-04-11T12:29:34.024Z,18.36
2023-04-11T12:30:36.752Z,18.41
2023-04-11T12:31:45.340Z,18.44
2023-04-11T12:32:50.169Z,18.47
2023-04-11T12:33:52.786Z,18.52
2023-04-11T12:34:55.449Z,18.55
2023-04-11T12:35:57.625Z,18.58
2023-04-11T12:37:03.469Z,18.60
2023-04-11T12:38:05.461Z,18.63
2023-04-11T12:39:07.762Z,18.66
2023-04-11T12:40:11.318Z,18.69
2023-04-11T12:41:30.147Z,18.70
2023-04-11T12:42:20.953Z,18.72
2023-04-11T12:43:21.731Z,18.75
2023-04-11T12:44:23.965Z,18.74
2023-04-11T12:45:27.889Z,18.70
2023-04-11T12:46:31.164Z,18.68
2023-04-11T12:47:34.266Z,18.65
2023-04-11T12:48:36.396Z,18.60
2023-04-11T12:49:39.741Z,18.57
2023-04-11T12:50:44.367Z,18.55
2023-04-11T12:51:47.114Z,18.53
2023-04-11T12:52:50.394Z,18.48
2023-04-11T12:53:52.506Z,18.43
2023-04-11T12:54:55.092Z,18.42
2023-04-11T12:55:57.364Z,18.40
2023-04-11T12:57:05.618Z,18.39
2023-04-11T12:58:09.235Z,18.38
2023-04-11T13:08:45.612Z,18.31
2023-04-11T13:10:58.042Z,18.35
2023-04-11T13:16:11.395Z,18.31
2023-04-11T13:17:20.368Z,18.30
2023-04-11T13:18:22.407Z,18.29
2023-04-11T13:19:26.158Z,18.29
2023-04-11T13:21:47.893Z,18.39
2023-04-11T13:24:08.132Z,18.31
2023-04-11T13:25:10.628Z,18.16
2023-04-11T13:26:15.277Z,18.18
2023-04-11T13:27:17.376Z,18.18
2023-04-11T13:28:20.533Z,18.15
2023-04-11T13:29:22.653Z,18.17
2023-04-11T13:30:24.817Z,18.18
2023-04-11T13:31:27.618Z,18.18
2023-04-11T13:32:29.983Z,18.20
2023-04-11T13:33:40.169Z,18.20
2023-04-11T13:34:45.627Z,18.24
2023-04-11T13:35:47.695Z,18.31
2023-04-11T13:37:03.665Z,18.36
2023-04-11T13:38:08.645Z,18.40
2023-04-11T13:39:10.790Z,18.47
2023-04-11T13:40:13.845Z,18.53
2023-04-11T13:41:18.373Z,18.59
2023-04-11T13:42:20.460Z,18.64
2023-04-11T13:43:25.713Z,18.70
2023-04-11T13:44:27.843Z,18.76
2023-04-11T13:45:34.101Z,18.83
2023-04-11T13:46:36.505Z,18.91
2023-04-11T13:47:40.027Z,19.00
2023-04-11T13:48:43.460Z,19.08
2023-04-11T13:49:45.651Z,19.17
2023-04-11T13:50:48.027Z,19.20
2023-04-11T13:51:55.152Z,19.20
2023-04-11T13:52:58.237Z,19.18
2023-04-11T13:54:02.239Z,19.14
2023-04-11T13:55:05.779Z,19.10
2023-04-11T13:56:09.748Z,19.07
2023-04-11T13:57:11.872Z,19.03
2023-04-11T13:58:14.762Z,19.00
2023-04-11T13:59:17.549Z,18.97
2023-04-11T14:00:21.982Z,18.94
2023-04-11T14:01:24.383Z,18.91
2023-04-11T14:02:27.695Z,18.90
2023-04-11T14:03:30.097Z,18.87
2023-04-11T14:04:35.911Z,18.85
2023-04-11T14:05:38.736Z,18.82
2023-04-11T14:06:41.133Z,18.79
2023-04-11T14:07:46.747Z,18.76
2023-04-11T14:09:00.318Z,18.74
2023-04-11T14:10:06.245Z,18.71
2023-04-11T14:12:32.851Z,18.78
2023-04-11T14:13:35.917Z,18.62
2023-04-11T14:14:38.230Z,18.61
2023-04-11T14:15:40.284Z,18.61
2023-04-11T14:16:42.390Z,18.61
2023-04-11T14:18:57.228Z,18.72
2023-04-11T14:19:59.434Z,18.56
2023-04-11T14:21:04.960Z,18.54
2023-04-11T14:22:07.052Z,18.55
2023-04-11T14:23:08.967Z,18.53
2023-04-11T14:24:15.808Z,18.52
2023-04-11T14:25:20.566Z,18.51
2023-04-11T14:26:23.666Z,18.50
2023-04-11T14:27:25.834Z,18.48
2023-04-11T14:28:28.498Z,18.47
2023-04-11T14:29:31.927Z,18.47
2023-04-11T14:30:36.261Z,18.45
2023-04-11T14:31:40.302Z,18.44
2023-04-11T14:32:43.331Z,18.40
2023-04-11T14:33:48.470Z,18.39
2023-04-11T14:34:54.661Z,18.38
2023-04-11T14:35:59.998Z,18.38
2023-04-11T14:38:15.945Z,18.46
2023-04-11T14:39:23.607Z,18.30
2023-04-11T14:40:28.170Z,18.31
2023-04-11T14:41:30.267Z,18.31
2023-04-11T14:42:38.811Z,18.30
2023-04-11T14:43:43.631Z,18.28
2023-04-11T14:44:45.747Z,18.26
2023-04-11T14:45:49.952Z,18.25
2023-04-11T14:46:54.139Z,18.24